createdAt,value
2017-12-16T10:39:03.613Z,7.70
2017-12-16T10:39:05.223Z,6.90
2017-12-16T10:39:06.275Z,7.00
2017-12-16T10:39:58.760Z,7.30
2017-12-16T10:40:00.414Z,6.80
2017-12-16T10:40:01.446Z,6.80
2017-12-16T10:40:01.986Z,6.90
2017-12-16T10:46:29.930Z,6.50
2017-12-16T10:46:31.506Z,7.60
2017-12-16T10:46:32.555Z,7.60
2017-12-16T10:46:33.671Z,7.50
2017-12-16T10:47:26.570Z,7.10
2017-12-16T10:47:28.697Z,7.10
2017-12-16T10:47:29.229Z,7.10
2017-12-16T10:47:30.339Z,7.20
2017-12-16T10:48:22.872Z,7.50
2017-12-16T10:48:24.463Z,7.20
2017-12-16T10:48:25.586Z,7.20
2017-12-16T10:48:26.664Z,7.20
2017-12-16T10:48:27.188Z,7.10
2017-12-16T10:49:20.331Z,7.00
2017-12-16T10:49:22.413Z,7.50
2017-12-16T10:49:23.515Z,7.60
2017-12-16T10:49:24.623Z,7.40
2017-12-16T10:50:17.105Z,7.50
2017-12-16T10:50:18.184Z,7.40
2017-12-16T10:50:19.228Z,7.50
2017-12-16T10:50:20.293Z,7.50
2017-12-16T10:50:21.335Z,7.40
2017-12-16T10:51:14.291Z,7.30
2017-12-16T10:51:16.483Z,7.20
2017-12-16T10:51:17.070Z,7.10
2017-12-16T10:51:18.187Z,7.20
2017-12-16T11:12:05.678Z,667.30
2017-12-16T11:16:49.179Z,894.80
2017-12-16T11:16:51.247Z,873.10
2017-12-16T11:16:52.306Z,847.90
2017-12-16T11:16:53.385Z,824.70
2017-12-16T11:17:47.000Z,219.10
2017-12-16T11:17:49.103Z,473.50
2017-12-16T11:17:50.196Z,489.50
2017-12-16T11:17:51.263Z,508.60
2017-12-16T11:17:52.308Z,531.50
2017-12-16T11:17:53.388Z,550.70
2017-12-16T11:17:53.924Z,568.30
2017-12-16T11:17:54.984Z,588.70
2017-12-16T11:17:56.084Z,603.40
2017-12-16T11:17:57.140Z,618.10
2017-12-16T11:17:58.182Z,618.40
2017-12-16T11:17:59.264Z,594.30
2017-12-16T11:18:00.312Z,570.00
2017-12-16T11:18:01.355Z,553.20
2017-12-16T11:18:01.884Z,541.60
2017-12-16T11:18:02.942Z,532.60
2017-12-16T11:18:03.984Z,553.20
2017-12-16T11:18:05.052Z,576.50
2017-12-16T11:18:06.145Z,604.10
2017-12-16T11:18:07.231Z,630.10
2017-12-16T11:18:08.274Z,654.80
2017-12-16T11:18:09.393Z,679.00
2017-12-16T11:18:09.944Z,686.10
2017-12-16T11:18:10.978Z,691.40
2017-12-16T11:18:12.026Z,688.50
2017-12-16T11:18:13.150Z,685.60
2017-12-16T11:18:14.196Z,688.40
2017-12-16T11:18:15.308Z,675.80
2017-12-16T11:18:15.865Z,676.20
2017-12-16T11:18:16.944Z,674.40
2017-12-16T11:18:17.984Z,669.80
2017-12-16T11:18:19.031Z,645.90
2017-12-16T11:18:20.211Z,631.30
2017-12-16T11:18:21.248Z,610.40
2017-12-16T11:18:22.300Z,584.90
2017-12-16T11:18:22.844Z,563.10
2017-12-16T11:18:23.972Z,551.30
2017-12-16T11:18:25.014Z,537.50
2017-12-16T11:18:26.072Z,528.00
2017-12-16T11:18:27.135Z,518.80
2017-12-16T11:18:28.175Z,512.70
2017-12-16T11:18:29.264Z,507.80
2017-12-16T11:18:30.380Z,504.40
2017-12-16T11:18:30.935Z,498.40
2017-12-16T11:18:32.002Z,489.10
2017-12-16T11:18:33.094Z,481.80
2017-12-16T11:18:34.150Z,459.10
2017-12-16T11:18:35.201Z,443.50
2017-12-16T11:18:36.244Z,420.70
2017-12-16T11:18:37.277Z,393.60
2017-12-16T11:18:37.804Z,365.70
2017-12-16T11:18:38.870Z,342.60
2017-12-16T11:18:39.915Z,354.20
2017-12-16T11:18:40.956Z,382.40
2017-12-16T11:18:42.052Z,406.60
2017-12-16T11:18:43.123Z,426.30
2017-12-16T11:18:44.223Z,444.10
2017-12-16T11:18:45.341Z,448.50
2017-12-16T11:18:45.870Z,463.10
2017-12-16T11:18:47.000Z,475.10
2017-12-16T11:18:48.047Z,481.50
2017-12-16T11:18:49.081Z,508.70
2017-12-16T11:18:50.162Z,540.50
2017-12-16T11:18:51.211Z,558.00
2017-12-16T11:18:52.294Z,565.50
2017-12-16T11:18:52.852Z,573.40
2017-12-16T11:18:53.931Z,575.70
2017-12-16T11:18:55.008Z,575.90
2017-12-16T11:18:55.991Z,576.60
2017-12-16T11:18:57.036Z,573.30
2017-12-16T11:18:58.162Z,568.90
2017-12-16T11:18:59.205Z,574.00
2017-12-16T11:19:00.288Z,581.30
2017-12-16T11:19:00.819Z,588.20
2017-12-16T11:19:01.893Z,595.70
2017-12-16T11:19:03.021Z,601.00
2017-12-16T11:19:04.067Z,605.20
2017-12-16T11:19:05.178Z,597.40
2017-12-16T11:19:06.283Z,597.40
2017-12-16T11:19:06.817Z,600.80
2017-12-16T11:19:07.893Z,607.30
2017-12-16T11:19:08.966Z,615.20
2017-12-16T11:19:10.019Z,600.30
2017-12-16T11:19:11.078Z,574.70
2017-12-16T11:19:12.139Z,563.00
2017-12-16T11:19:13.177Z,541.80
2017-12-16T11:19:14.219Z,521.60
2017-12-16T11:19:14.749Z,514.00
2017-12-16T11:19:15.848Z,494.80
2017-12-16T11:19:16.927Z,480.90
2017-12-16T11:19:17.973Z,472.10
2017-12-16T11:19:19.094Z,440.70
2017-12-16T11:19:20.213Z,407.20
2017-12-16T11:19:20.765Z,387.70
2017-12-16T11:19:21.899Z,376.90
2017-12-16T11:19:22.976Z,367.70
2017-12-16T11:19:24.027Z,374.50
2017-12-16T11:19:25.064Z,386.50
2017-12-16T11:19:26.125Z,392.80
2017-12-16T11:19:27.253Z,398.40
2017-12-16T11:19:27.807Z,413.10
2017-12-16T11:19:28.927Z,429.10
2017-12-16T11:19:29.989Z,448.70
2017-12-16T11:19:31.039Z,463.20
2017-12-16T11:19:32.100Z,468.40
2017-12-16T11:19:33.129Z,470.90
2017-12-16T11:19:34.152Z,485.20
2017-12-16T11:19:35.193Z,497.60
2017-12-16T11:19:35.727Z,501.40
2017-12-16T11:19:36.824Z,504.40
2017-12-16T11:19:37.940Z,497.20
2017-12-16T11:19:39.010Z,486.10
2017-12-16T11:19:40.069Z,481.80
2017-12-16T11:19:41.173Z,474.50
2017-12-16T11:19:41.707Z,459.10
2017-12-16T11:19:42.767Z,470.40
2017-12-16T11:19:43.816Z,480.50
2017-12-16T11:19:44.926Z,489.80
2017-12-16T11:19:45.971Z,506.20
2017-12-16T11:19:47.093Z,509.50
2017-12-16T11:19:48.127Z,509.30
2017-12-16T11:19:49.207Z,512.00
2017-12-16T11:19:49.739Z,516.10
2017-12-16T11:19:50.859Z,515.50
2017-12-16T11:19:51.897Z,516.20
2017-12-16T11:19:52.988Z,514.90
2017-12-16T11:19:54.043Z,500.90
2017-12-16T11:19:55.095Z,482.30
2017-12-16T11:19:56.139Z,467.90
2017-12-16T11:19:57.188Z,462.70
2017-12-16T11:19:57.727Z,445.60
2017-12-16T11:19:58.809Z,441.10
2017-12-16T11:19:59.854Z,436.30
2017-12-16T11:20:00.994Z,435.80
2017-12-16T11:20:02.047Z,424.00
2017-12-16T11:20:03.107Z,410.50
2017-12-16T11:20:04.174Z,386.70
2017-12-16T11:20:04.714Z,366.80
2017-12-16T11:20:05.806Z,355.80
2017-12-16T11:20:06.895Z,351.40
2017-12-16T11:20:07.944Z,357.50
2017-12-16T11:20:09.064Z,361.90
2017-12-16T11:20:10.200Z,367.00
2017-12-16T11:20:10.735Z,373.50
2017-12-16T11:20:11.863Z,379.70
2017-12-16T11:20:12.952Z,370.70
2017-12-16T11:20:14.032Z,360.70
2017-12-16T11:20:15.095Z,352.30
2017-12-16T11:20:16.184Z,335.30
2017-12-16T11:20:16.743Z,329.80
2017-12-16T11:20:17.815Z,329.50
2017-12-16T11:20:18.960Z,328.80
2017-12-16T11:20:20.016Z,323.50
2017-12-16T11:20:21.134Z,321.90
2017-12-16T11:20:22.215Z,320.30
2017-12-16T11:20:22.785Z,321.50
2017-12-16T11:20:23.834Z,326.20
2017-12-16T11:20:24.965Z,334.00
2017-12-16T11:20:26.015Z,340.30
2017-12-16T11:20:27.056Z,337.60
2017-12-16T11:20:28.137Z,338.70
2017-12-16T11:20:28.655Z,323.50
2017-12-16T11:20:29.743Z,303.80
2017-12-16T11:20:30.863Z,283.80
2017-12-16T11:20:31.975Z,282.20
2017-12-16T11:20:33.111Z,285.00
2017-12-16T11:20:33.630Z,286.30
2017-12-16T11:20:34.706Z,285.20
2017-12-16T11:20:35.823Z,283.20
2017-12-16T11:20:36.959Z,277.30
2017-12-16T11:20:38.023Z,269.70
2017-12-16T11:20:39.104Z,263.90
2017-12-16T11:20:39.663Z,255.00
2017-12-16T11:20:40.786Z,244.00
2017-12-16T11:20:41.855Z,232.80
2017-12-16T11:20:42.943Z,224.70
2017-12-16T11:20:43.979Z,218.10
2017-12-16T11:20:45.106Z,231.60
2017-12-16T11:20:45.638Z,248.40
2017-12-16T11:20:46.790Z,264.90
2017-12-16T11:20:47.825Z,276.40
2017-12-16T11:20:48.912Z,278.90
2017-12-16T11:20:49.975Z,284.40
2017-12-16T11:20:51.058Z,292.80
2017-12-16T11:20:51.590Z,299.60
2017-12-16T11:20:52.600Z,303.20
2017-12-16T11:20:53.672Z,312.10
2017-12-16T11:20:54.746Z,307.90
2017-12-16T11:20:55.862Z,301.10
2017-12-16T11:20:56.946Z,308.60
2017-12-16T11:20:58.016Z,316.70
2017-12-16T11:20:59.075Z,319.80
2017-12-16T11:20:59.598Z,318.80
2017-12-16T11:21:00.700Z,317.30
2017-12-16T11:21:01.827Z,315.90
2017-12-16T11:21:02.878Z,316.00
2017-12-16T11:21:03.928Z,315.90
2017-12-16T11:21:04.986Z,315.40
2017-12-16T11:21:06.037Z,314.70
2017-12-16T11:21:06.626Z,314.60
2017-12-16T11:21:07.746Z,312.60
2017-12-16T11:21:08.818Z,311.80
2017-12-16T11:21:09.879Z,312.50
2017-12-16T11:21:10.976Z,312.60
2017-12-16T11:21:12.067Z,312.30
2017-12-16T11:21:12.598Z,311.50
2017-12-16T11:21:13.708Z,311.30
2017-12-16T11:21:14.778Z,292.00
2017-12-16T11:21:15.820Z,271.50
2017-12-16T11:21:16.870Z,250.90
2017-12-16T11:21:17.995Z,233.70
2017-12-16T11:21:19.038Z,225.90
2017-12-16T11:21:19.581Z,216.20
2017-12-16T11:21:20.640Z,204.60
2017-12-16T11:21:21.748Z,194.60
2017-12-16T11:21:22.816Z,184.80
2017-12-16T11:21:23.888Z,166.20
2017-12-16T11:21:24.948Z,159.50
2017-12-16T11:21:26.018Z,154.60
2017-12-16T11:21:26.549Z,139.80
2017-12-16T11:21:27.620Z,124.30
2017-12-16T11:21:28.678Z,112.80
2017-12-16T11:21:29.778Z,105.00
2017-12-16T11:21:30.876Z,99.80
2017-12-16T11:21:31.977Z,95.20
2017-12-16T11:21:33.036Z,91.00
2017-12-16T11:21:33.578Z,90.20
2017-12-16T11:21:34.686Z,94.50
2017-12-16T11:21:35.779Z,95.40
2017-12-16T11:21:36.816Z,96.10
2017-12-16T11:21:37.860Z,96.50
2017-12-16T11:21:38.910Z,95.80
2017-12-16T11:21:39.958Z,93.80
2017-12-16T11:21:41.022Z,92.20
2017-12-16T11:21:41.580Z,91.20
2017-12-16T11:21:42.630Z,89.70
2017-12-16T11:21:43.740Z,88.20
2017-12-16T11:21:44.806Z,87.10
2017-12-16T11:21:45.904Z,85.30
2017-12-16T11:21:46.978Z,83.60
2017-12-16T11:21:47.510Z,81.80
2017-12-16T11:21:48.612Z,80.20
2017-12-16T11:21:49.700Z,78.80
2017-12-16T11:21:50.744Z,77.30
2017-12-16T11:21:51.819Z,76.40
2017-12-16T11:21:52.901Z,76.10
2017-12-16T11:21:53.968Z,75.30
2017-12-16T11:21:54.540Z,74.70
2017-12-16T11:21:55.618Z,75.10
2017-12-16T11:21:56.670Z,75.90
2017-12-16T11:21:57.740Z,90.40
2017-12-16T11:21:58.866Z,102.60
2017-12-16T11:21:59.936Z,109.80
2017-12-16T11:22:00.968Z,112.80
2017-12-16T11:22:01.501Z,115.30
2017-12-16T11:22:02.628Z,116.20
2017-12-16T11:22:03.702Z,114.10
2017-12-16T11:22:04.778Z,107.70
2017-12-16T11:22:05.836Z,104.80
2017-12-16T11:22:06.896Z,103.20
2017-12-16T11:22:07.982Z,103.10
2017-12-16T11:22:08.546Z,101.40
2017-12-16T11:22:09.586Z,100.40
2017-12-16T11:22:10.648Z,99.70
2017-12-16T11:22:11.688Z,98.70
2017-12-16T11:22:12.784Z,97.90
2017-12-16T11:22:13.858Z,96.90
2017-12-16T11:22:14.888Z,96.10
2017-12-16T11:22:15.930Z,95.80
2017-12-16T11:22:16.457Z,95.30
2017-12-16T11:22:17.532Z,95.60
2017-12-16T11:22:18.580Z,99.00
2017-12-16T11:22:19.636Z,105.90
2017-12-16T11:22:20.786Z,111.50
2017-12-16T11:22:21.828Z,113.80
2017-12-16T11:22:22.934Z,116.60
2017-12-16T11:22:23.496Z,118.40
2017-12-16T11:22:24.626Z,120.00
2017-12-16T11:22:25.746Z,136.40
2017-12-16T11:22:26.786Z,138.80
2017-12-16T11:22:27.830Z,126.70
2017-12-16T11:22:28.942Z,115.80
2017-12-16T11:22:29.497Z,108.50
2017-12-16T11:22:30.551Z,105.20
2017-12-16T11:22:31.618Z,102.20
2017-12-16T11:22:32.700Z,100.50
2017-12-16T11:22:33.826Z,100.60
2017-12-16T11:22:34.866Z,100.90
2017-12-16T11:22:35.958Z,101.40
2017-12-16T11:22:36.500Z,100.20
2017-12-16T11:22:37.580Z,98.40
2017-12-16T11:22:38.624Z,98.40
2017-12-16T11:22:39.750Z,98.70
2017-12-16T11:22:40.817Z,98.50
2017-12-16T11:22:41.868Z,98.60
2017-12-16T11:22:42.928Z,99.10
2017-12-16T11:22:43.460Z,99.90
2017-12-16T11:22:44.510Z,101.30
2017-12-16T11:22:45.566Z,103.70
2017-12-16T11:22:46.673Z,111.50
2017-12-16T11:22:47.740Z,117.90
2017-12-16T11:22:48.782Z,117.90
2017-12-16T11:22:49.914Z,120.00
2017-12-16T11:22:50.474Z,116.60
2017-12-16T11:22:51.516Z,114.10
2017-12-16T11:22:52.625Z,111.20
2017-12-16T11:22:53.750Z,109.40
2017-12-16T11:22:54.823Z,107.50
2017-12-16T11:22:55.906Z,90.40
2017-12-16T11:22:56.432Z,86.90
2017-12-16T11:22:57.500Z,83.60
2017-12-16T11:22:58.578Z,81.60
2017-12-16T11:22:59.636Z,80.90
2017-12-16T11:23:00.708Z,80.60
2017-12-16T11:23:01.754Z,80.50
2017-12-16T11:23:02.778Z,80.20
2017-12-16T11:23:03.907Z,79.80
2017-12-16T11:23:04.460Z,80.30
2017-12-16T11:23:05.498Z,82.60
2017-12-16T11:23:06.622Z,119.30
2017-12-16T11:23:07.685Z,151.20
2017-12-16T11:23:08.736Z,181.30
2017-12-16T11:23:09.828Z,209.30
2017-12-16T11:23:10.938Z,234.30
2017-12-16T11:23:11.470Z,255.40
2017-12-16T11:23:12.532Z,270.30
2017-12-16T11:23:13.660Z,278.50
2017-12-16T11:23:14.780Z,283.50
2017-12-16T11:23:15.828Z,285.70
2017-12-16T11:23:16.938Z,281.40
2017-12-16T11:23:17.466Z,277.00
2017-12-16T11:23:18.556Z,276.60
2017-12-16T11:23:19.668Z,270.90
2017-12-16T11:23:20.726Z,272.30
2017-12-16T11:23:21.782Z,275.50
2017-12-16T11:23:22.818Z,278.90
2017-12-16T11:23:23.908Z,282.30
2017-12-16T11:23:24.474Z,285.50
2017-12-16T11:23:25.581Z,287.80
2017-12-16T11:23:26.708Z,290.00
2017-12-16T11:23:27.748Z,292.70
2017-12-16T11:23:28.788Z,296.00
2017-12-16T11:23:29.912Z,297.80
2017-12-16T11:23:30.458Z,300.10
2017-12-16T11:23:31.508Z,303.40
2017-12-16T11:23:32.595Z,305.00
2017-12-16T11:23:33.708Z,306.80
2017-12-16T11:23:34.766Z,306.80
2017-12-16T11:23:35.812Z,304.30
2017-12-16T11:23:36.379Z,268.30
2017-12-16T11:23:37.456Z,236.80
2017-12-16T11:23:38.511Z,207.40
2017-12-16T11:23:39.587Z,179.70
2017-12-16T11:23:40.720Z,155.90
2017-12-16T11:23:41.772Z,135.50
2017-12-16T11:23:42.862Z,120.60
2017-12-16T11:23:43.420Z,112.30
2017-12-16T11:23:44.460Z,106.60
2017-12-16T11:23:45.510Z,102.40
2017-12-16T11:23:46.592Z,99.00
2017-12-16T11:23:47.666Z,97.00
2017-12-16T11:23:48.704Z,97.20
2017-12-16T11:23:49.826Z,95.20
2017-12-16T11:23:50.378Z,91.80
2017-12-16T11:23:51.460Z,89.10
2017-12-16T11:23:52.550Z,85.70
2017-12-16T11:23:53.666Z,82.40
2017-12-16T11:23:54.718Z,79.50
2017-12-16T11:23:55.769Z,77.20
2017-12-16T11:23:56.820Z,75.30
2017-12-16T11:23:57.354Z,73.00
2017-12-16T11:23:58.400Z,69.50
2017-12-16T11:23:59.508Z,67.70
2017-12-16T11:24:00.618Z,65.30
2017-12-16T11:24:01.696Z,61.80
2017-12-16T11:24:02.786Z,60.70
2017-12-16T11:24:03.314Z,59.00
2017-12-16T11:24:04.377Z,58.00
2017-12-16T11:24:05.420Z,57.10
2017-12-16T11:24:06.548Z,56.30
2017-12-16T11:24:07.650Z,55.90
2017-12-16T11:24:08.751Z,58.10
2017-12-16T11:24:09.828Z,59.50
2017-12-16T11:24:10.380Z,60.60
2017-12-16T11:24:11.444Z,62.10
2017-12-16T11:24:12.540Z,65.90
2017-12-16T11:24:13.627Z,72.20
2017-12-16T11:24:14.668Z,76.90
2017-12-16T11:24:15.708Z,78.80
2017-12-16T11:24:16.756Z,78.80
2017-12-16T11:24:17.362Z,83.30
2017-12-16T11:24:18.406Z,88.60
2017-12-16T11:24:19.456Z,90.20
2017-12-16T11:24:20.542Z,92.30
2017-12-16T11:24:21.626Z,101.80
2017-12-16T11:24:22.697Z,113.90
2017-12-16T11:24:23.830Z,117.60
2017-12-16T11:24:24.378Z,120.70
2017-12-16T11:24:25.426Z,120.90
2017-12-16T11:24:26.480Z,124.50
2017-12-16T11:24:27.536Z,134.30
2017-12-16T11:24:28.578Z,143.30
2017-12-16T11:24:29.660Z,148.20
2017-12-16T11:24:30.784Z,151.40
2017-12-16T11:24:31.339Z,154.30
2017-12-16T11:24:32.388Z,156.00
2017-12-16T11:24:33.444Z,157.40
2017-12-16T11:24:34.487Z,158.60
2017-12-16T11:24:35.578Z,160.00
2017-12-16T11:24:36.611Z,160.10
2017-12-16T11:24:37.708Z,160.00
2017-12-16T11:24:38.740Z,157.30
2017-12-16T11:24:39.276Z,156.10
2017-12-16T11:24:40.348Z,163.20
2017-12-16T11:24:41.390Z,175.50
2017-12-16T11:24:42.465Z,177.60
2017-12-16T11:24:43.504Z,180.00
2017-12-16T11:24:44.616Z,183.80
2017-12-16T11:24:45.746Z,184.90
2017-12-16T11:24:46.278Z,200.40
2017-12-16T11:24:47.370Z,223.80
2017-12-16T11:24:48.478Z,237.60
2017-12-16T11:24:49.516Z,253.20
2017-12-16T11:24:50.618Z,267.50
2017-12-16T11:24:51.748Z,283.40
2017-12-16T11:24:52.278Z,287.70
2017-12-16T11:24:53.346Z,295.20
2017-12-16T11:24:54.403Z,297.60
2017-12-16T11:24:55.510Z,305.20
2017-12-16T11:24:56.582Z,312.20
2017-12-16T11:24:57.659Z,322.50
2017-12-16T11:24:58.794Z,341.60
2017-12-16T11:24:59.320Z,361.50
2017-12-16T11:25:00.426Z,381.10
2017-12-16T11:25:01.483Z,397.00
2017-12-16T11:25:02.510Z,413.90
2017-12-16T11:25:03.578Z,424.80
2017-12-16T11:25:04.656Z,434.20
2017-12-16T11:25:05.702Z,446.90
2017-12-16T11:25:06.226Z,463.40
2017-12-16T11:25:07.278Z,479.10
2017-12-16T11:25:08.328Z,489.60
2017-12-16T11:25:09.370Z,499.30
2017-12-16T11:25:10.418Z,501.50
2017-12-16T11:25:11.510Z,499.50
2017-12-16T11:25:12.619Z,504.50
2017-12-16T11:25:13.643Z,507.40
2017-12-16T11:25:14.698Z,509.70
2017-12-16T11:25:15.258Z,518.50
2017-12-16T11:25:16.388Z,515.70
2017-12-16T11:25:17.432Z,498.20
2017-12-16T11:25:18.508Z,487.10
2017-12-16T11:25:19.556Z,477.90
2017-12-16T11:25:20.588Z,470.90
2017-12-16T11:25:21.642Z,459.80
2017-12-16T11:25:22.978Z,459.30
2017-12-16T11:25:23.625Z,464.80
2017-12-16T11:25:24.698Z,490.60
2017-12-16T11:25:25.218Z,510.50
2017-12-16T11:25:26.259Z,515.30
2017-12-16T11:25:27.342Z,505.30
2017-12-16T11:25:28.423Z,483.60
2017-12-16T11:25:29.503Z,465.40
2017-12-16T11:25:30.618Z,446.20
2017-12-16T11:25:31.658Z,435.30
2017-12-16T11:25:32.220Z,423.70
2017-12-16T11:25:33.258Z,416.40
2017-12-16T11:25:34.388Z,414.40
2017-12-16T11:25:35.446Z,404.70
2017-12-16T11:25:36.492Z,390.50
2017-12-16T11:25:37.566Z,378.10
2017-12-16T11:25:38.656Z,372.40
2017-12-16T11:25:39.188Z,365.40
2017-12-16T11:25:40.286Z,359.10
2017-12-16T11:25:41.420Z,357.20
2017-12-16T11:25:42.466Z,364.30
2017-12-16T11:25:43.508Z,359.60
2017-12-16T11:25:44.570Z,350.90
2017-12-16T11:25:45.666Z,341.50
2017-12-16T11:25:46.220Z,330.50
2017-12-16T11:25:47.308Z,322.10
2017-12-16T11:25:48.358Z,319.50
2017-12-16T11:25:49.458Z,336.70
2017-12-16T11:25:50.546Z,357.30
2017-12-16T11:25:51.618Z,368.70
2017-12-16T11:25:52.145Z,371.50
2017-12-16T11:25:53.216Z,371.20
2017-12-16T11:25:54.304Z,352.70
2017-12-16T11:25:55.368Z,333.90
2017-12-16T11:25:56.427Z,327.60
2017-12-16T11:25:57.554Z,326.40
2017-12-16T11:25:58.582Z,327.70
2017-12-16T11:25:59.618Z,327.10
2017-12-16T11:26:00.148Z,328.80
2017-12-16T11:26:01.218Z,327.40
2017-12-16T11:26:02.296Z,323.40
2017-12-16T11:26:03.353Z,321.10
2017-12-16T11:26:04.462Z,329.60
2017-12-16T11:26:05.576Z,329.30
2017-12-16T11:26:06.618Z,329.90
2017-12-16T11:26:07.146Z,327.80
2017-12-16T11:26:08.195Z,338.80
2017-12-16T11:26:09.350Z,348.10
2017-12-16T11:26:10.408Z,345.00
2017-12-16T11:26:11.507Z,335.50
2017-12-16T11:26:12.535Z,319.70
2017-12-16T11:26:13.607Z,314.30
2017-12-16T11:26:14.138Z,313.60
2017-12-16T11:26:15.186Z,312.70
2017-12-16T11:26:16.307Z,312.90
2017-12-16T11:26:17.374Z,312.40
2017-12-16T11:26:18.426Z,304.70
2017-12-16T11:26:19.502Z,279.70
2017-12-16T11:26:20.565Z,252.10
2017-12-16T11:26:21.607Z,228.00
2017-12-16T11:26:22.581Z,211.40
2017-12-16T11:26:23.685Z,199.50
2017-12-16T11:26:24.146Z,202.40
2017-12-16T11:26:25.156Z,211.40
2017-12-16T11:26:26.208Z,224.50
2017-12-16T11:26:27.347Z,237.10
2017-12-16T11:26:28.416Z,252.50
2017-12-16T11:26:29.458Z,281.90
2017-12-16T11:26:30.495Z,303.00
2017-12-16T11:26:31.578Z,322.90
2017-12-16T11:26:32.096Z,347.30
2017-12-16T11:26:33.126Z,369.50
2017-12-16T11:26:34.227Z,380.50
2017-12-16T11:26:35.342Z,413.00
2017-12-16T11:26:36.398Z,440.50
2017-12-16T11:26:37.508Z,449.60
2017-12-16T11:26:38.589Z,451.40
2017-12-16T11:26:39.128Z,461.90
2017-12-16T11:26:40.222Z,480.80
2017-12-16T11:26:41.277Z,506.00
2017-12-16T11:26:42.336Z,531.80
2017-12-16T11:26:43.378Z,558.70
2017-12-16T11:26:44.468Z,582.40
2017-12-16T11:26:45.564Z,608.10
2017-12-16T11:26:46.098Z,633.60
2017-12-16T11:26:47.244Z,659.50
2017-12-16T11:26:48.260Z,684.50
2017-12-16T11:26:49.300Z,706.10
2017-12-16T11:26:50.380Z,725.40
2017-12-16T11:26:51.498Z,740.10
2017-12-16T11:26:52.578Z,754.60
2017-12-16T11:26:53.108Z,768.70
2017-12-16T11:26:54.220Z,773.10
2017-12-16T11:26:55.306Z,774.60
2017-12-16T11:26:56.364Z,763.10
2017-12-16T11:26:57.498Z,748.50
2017-12-16T11:26:58.560Z,734.90
2017-12-16T11:26:59.096Z,704.20
2017-12-16T11:27:00.220Z,682.40
2017-12-16T11:27:01.283Z,662.40
2017-12-16T11:27:02.326Z,639.80
2017-12-16T11:27:03.428Z,622.90
2017-12-16T11:27:04.510Z,612.40
2017-12-16T11:27:05.546Z,583.40
2017-12-16T11:27:06.076Z,559.10
2017-12-16T11:27:07.130Z,563.20
2017-12-16T11:27:08.222Z,558.90
2017-12-16T11:27:09.287Z,547.50
2017-12-16T11:27:10.324Z,532.80
2017-12-16T11:27:11.379Z,536.60
2017-12-16T11:27:12.472Z,545.50
2017-12-16T11:27:13.506Z,542.30
2017-12-16T11:27:14.054Z,524.40
2017-12-16T11:27:15.187Z,501.70
2017-12-16T11:27:16.305Z,483.20
2017-12-16T11:27:17.356Z,487.20
2017-12-16T11:27:18.462Z,484.60
2017-12-16T11:27:19.530Z,478.60
2017-12-16T11:27:20.060Z,484.80
2017-12-16T11:27:21.182Z,504.30
2017-12-16T11:27:22.246Z,509.50
2017-12-16T11:27:23.306Z,504.90
2017-12-16T11:27:24.360Z,496.00
2017-12-16T11:27:25.452Z,488.30
2017-12-16T11:27:26.550Z,486.30
2017-12-16T11:27:27.076Z,487.50
2017-12-16T11:27:28.130Z,487.40
2017-12-16T11:27:29.172Z,491.50
2017-12-16T11:27:30.234Z,498.40
2017-12-16T11:27:31.270Z,502.10
2017-12-16T11:27:32.318Z,503.70
2017-12-16T11:27:33.353Z,503.30
2017-12-16T11:27:34.412Z,496.50
2017-12-16T11:27:35.499Z,512.80
2017-12-16T11:27:36.056Z,535.20
2017-12-16T11:27:37.108Z,557.50
2017-12-16T11:27:38.175Z,579.00
2017-12-16T11:27:39.262Z,602.60
2017-12-16T11:27:40.308Z,632.30
2017-12-16T11:27:41.349Z,634.20
2017-12-16T11:27:42.390Z,631.10
2017-12-16T11:27:43.508Z,644.90
2017-12-16T11:27:44.064Z,676.50
2017-12-16T11:27:45.118Z,710.00
2017-12-16T11:27:46.226Z,738.10
2017-12-16T11:27:47.340Z,744.40
2017-12-16T11:27:48.428Z,751.00
2017-12-16T11:27:49.501Z,759.00
2017-12-16T11:27:50.031Z,753.10
2017-12-16T11:27:51.144Z,739.40
2017-12-16T11:27:52.220Z,738.20
2017-12-16T11:27:53.354Z,745.80
2017-12-16T11:27:54.418Z,750.90
2017-12-16T11:27:55.502Z,756.00
2017-12-16T11:27:56.044Z,763.30
2017-12-16T11:27:57.139Z,771.20
2017-12-16T11:27:58.226Z,782.70
2017-12-16T11:27:59.344Z,798.70
2017-12-16T11:28:00.408Z,814.60
2017-12-16T11:28:01.508Z,830.80
2017-12-16T11:28:02.065Z,852.70
2017-12-16T11:28:03.124Z,877.20
2017-12-16T11:28:04.180Z,895.50
2017-12-16T11:28:05.264Z,903.20
2017-12-16T11:28:06.390Z,901.60
2017-12-16T11:28:07.436Z,889.30
2017-12-16T11:28:07.966Z,878.80
2017-12-16T11:28:09.018Z,868.50
2017-12-16T11:28:10.088Z,858.00
2017-12-16T11:28:11.188Z,849.10
2017-12-16T11:28:12.309Z,844.70
2017-12-16T11:28:13.378Z,829.60
2017-12-16T11:28:14.418Z,816.40
2017-12-16T11:28:14.950Z,802.50
2017-12-16T11:28:16.010Z,790.70
2017-12-16T11:28:17.108Z,780.80
2017-12-16T11:28:18.230Z,779.30
2017-12-16T11:28:19.308Z,783.30
2017-12-16T11:28:20.318Z,788.80
2017-12-16T11:28:21.365Z,789.00
2017-12-16T11:28:22.432Z,789.70
2017-12-16T11:28:22.956Z,786.90
2017-12-16T11:28:24.002Z,787.70
2017-12-16T11:28:25.050Z,791.10
2017-12-16T11:28:26.142Z,791.90
2017-12-16T11:28:27.196Z,794.60
2017-12-16T11:28:28.258Z,794.80
2017-12-16T11:28:29.302Z,792.00
2017-12-16T11:28:30.380Z,788.00
2017-12-16T11:28:30.938Z,785.30
2017-12-16T11:28:31.980Z,785.60
2017-12-16T11:28:33.090Z,781.90
2017-12-16T11:28:34.222Z,779.30
2017-12-16T11:28:35.286Z,776.90
2017-12-16T11:28:36.386Z,769.40
2017-12-16T11:28:36.952Z,765.10
2017-12-16T11:28:38.068Z,763.40
2017-12-16T11:28:39.116Z,755.90
2017-12-16T11:28:40.158Z,740.40
2017-12-16T11:28:41.206Z,727.40
2017-12-16T11:28:42.256Z,708.00
2017-12-16T11:28:43.350Z,692.50
2017-12-16T11:28:44.470Z,677.10
2017-12-16T11:28:44.998Z,661.50
2017-12-16T11:28:46.058Z,649.80
2017-12-16T11:28:47.183Z,634.50
2017-12-16T11:28:48.238Z,618.80
2017-12-16T11:28:49.302Z,600.60
2017-12-16T11:28:50.358Z,584.00
2017-12-16T11:28:51.458Z,572.30
2017-12-16T11:28:51.988Z,560.20
2017-12-16T11:28:53.028Z,547.30
2017-12-16T11:28:54.076Z,535.40
2017-12-16T11:28:55.190Z,520.00
2017-12-16T11:28:56.298Z,509.50
2017-12-16T11:28:57.350Z,504.30
2017-12-16T11:28:58.428Z,501.00
2017-12-16T11:28:58.956Z,509.60
2017-12-16T11:29:00.060Z,512.50
2017-12-16T11:29:01.188Z,505.60
2017-12-16T11:29:02.232Z,487.60
2017-12-16T11:29:03.278Z,472.70
2017-12-16T11:29:04.383Z,460.40
2017-12-16T11:29:04.918Z,455.90
2017-12-16T11:29:05.956Z,464.30
2017-12-16T11:29:07.108Z,470.70
2017-12-16T11:29:08.182Z,467.90
2017-12-16T11:29:09.244Z,469.60
2017-12-16T11:29:10.390Z,475.60
2017-12-16T11:29:10.952Z,496.00
2017-12-16T11:29:12.018Z,522.00
2017-12-16T11:29:13.068Z,545.60
2017-12-16T11:29:14.116Z,564.60
2017-12-16T11:29:15.178Z,572.70
2017-12-16T11:29:16.228Z,571.50
2017-12-16T11:29:17.350Z,567.00
2017-12-16T11:29:17.902Z,565.10
2017-12-16T11:29:18.949Z,572.90
2017-12-16T11:29:20.010Z,575.00
2017-12-16T11:29:21.100Z,596.50
2017-12-16T11:29:22.178Z,607.60
2017-12-16T11:29:23.232Z,635.20
2017-12-16T11:29:24.298Z,647.20
2017-12-16T11:29:25.422Z,652.70
2017-12-16T11:29:25.957Z,666.20
2017-12-16T11:29:27.028Z,664.20
2017-12-16T11:29:28.150Z,657.20
2017-12-16T11:29:29.263Z,636.70
2017-12-16T11:29:30.392Z,621.20
2017-12-16T11:29:30.940Z,620.00
2017-12-16T11:29:31.998Z,628.90
2017-12-16T11:29:33.099Z,635.30
2017-12-16T11:29:34.164Z,645.50
2017-12-16T11:29:35.200Z,661.90
2017-12-16T12:26:34.339Z,3.30
2017-12-16T12:27:47.846Z,3.60
2017-12-16T12:27:48.944Z,3.70
2017-12-16T12:27:50.102Z,3.70
2017-12-16T12:27:51.230Z,3.80
2017-12-16T12:33:38.833Z,3.50
2017-12-16T12:33:39.865Z,3.20